createdAt,value
2023-03-20T00:01:46.295Z,0.70
2023-03-20T00:04:19.005Z,1.27
2023-03-20T00:06:58.279Z,1.37
2023-03-20T00:09:35.325Z,6.13
2023-03-20T00:12:10.861Z,0.90
2023-03-20T00:14:41.809Z,1.90
2023-03-20T00:17:23.724Z,1.38
2023-03-20T00:19:54.274Z,1.13
2023-03-20T00:28:01.820Z,0.73
2023-03-20T00:30:48.577Z,1.43
2023-03-20T00:33:17.259Z,1.93
2023-03-20T00:35:48.166Z,0.77
2023-03-20T00:38:22.264Z,1.48
2023-03-20T00:40:56.441Z,1.33
2023-03-20T00:43:25.327Z,0.43
2023-03-20T00:46:04.373Z,1.27
2023-03-20T00:48:48.927Z,6.93
2023-03-20T00:51:27.017Z,0.90
2023-03-20T00:54:05.119Z,1.30
2023-03-20T00:56:37.587Z,2.13
2023-03-20T00:59:27.750Z,1.03
2023-03-20T01:02:00.944Z,1.37
2023-03-20T01:04:49.555Z,1.53
2023-03-20T01:07:19.995Z,0.83
2023-03-20T01:09:57.081Z,0.83
2023-03-20T01:12:36.083Z,1.73
2023-03-20T01:15:05.859Z,1.80
2023-03-20T01:17:36.556Z,0.33
2023-03-20T01:20:15.043Z,0.53
2023-03-20T01:22:48.762Z,1.13
2023-03-20T01:25:35.428Z,1.33
2023-03-20T01:28:25.330Z,0.40
2023-03-20T01:30:58.801Z,1.13
2023-03-20T01:33:34.233Z,1.03
2023-03-20T01:36:03.541Z,0.50
2023-03-20T01:38:36.113Z,0.63
2023-03-20T01:41:21.698Z,0.47
2023-03-20T01:44:06.148Z,1.43
2023-03-20T01:46:40.065Z,2.37
2023-03-20T01:49:28.663Z,0.90
2023-03-20T01:52:07.970Z,0.73
2023-03-20T01:54:43.122Z,0.37
2023-03-20T01:57:31.545Z,0.47
2023-03-20T02:00:15.327Z,0.60
2023-03-20T02:02:51.096Z,1.17
2023-03-20T02:05:57.753Z,1.37
2023-03-20T02:08:38.516Z,1.17
2023-03-20T02:11:10.470Z,1.87
2023-03-20T02:13:46.405Z,2.10
2023-03-20T02:16:22.885Z,0.80
2023-03-20T02:19:06.450Z,5.43
2023-03-20T02:21:49.188Z,0.77
2023-03-20T02:24:40.275Z,0.83
2023-03-20T02:27:52.799Z,0.77
2023-03-20T02:33:54.931Z,0.57
2023-03-20T02:36:56.260Z,0.87
2023-03-20T02:39:55.944Z,1.27
2023-03-20T02:42:50.729Z,0.50
2023-03-20T02:45:39.618Z,3.30
2023-03-20T02:49:02.820Z,0.63
2023-03-20T02:51:50.304Z,1.10
2023-03-20T02:54:40.689Z,6.13
2023-03-20T02:58:00.348Z,5.73
2023-03-20T03:00:42.931Z,0.40
2023-03-20T03:03:58.314Z,8.77
2023-03-20T03:06:39.785Z,0.93
2023-03-20T03:09:34.623Z,0.77
2023-03-20T03:12:22.007Z,1.77
2023-03-20T03:15:05.836Z,0.60
2023-03-20T03:17:38.679Z,1.40
2023-03-20T03:20:48.151Z,4.70
2023-03-20T03:23:45.030Z,0.70
2023-03-20T03:26:45.420Z,2.00
2023-03-20T03:29:25.570Z,1.00
2023-03-20T03:31:56.680Z,2.87
2023-03-20T03:34:27.162Z,1.70
2023-03-20T03:37:46.345Z,2.10
2023-03-20T03:40:35.100Z,1.50
2023-03-20T03:43:38.177Z,3.17
2023-03-20T03:46:32.509Z,1.67
2023-03-20T03:49:01.767Z,1.97
2023-03-20T03:51:37.416Z,1.30
2023-03-20T03:54:26.842Z,1.13
2023-03-20T03:57:29.786Z,1.47
2023-03-20T04:00:07.561Z,1.10
2023-03-20T04:03:06.357Z,1.53
2023-03-20T04:05:40.898Z,1.43
2023-03-20T04:08:09.875Z,2.57
2023-03-20T04:10:42.845Z,2.17
2023-03-20T04:13:27.675Z,4.97
2023-03-20T04:18:58.857Z,4.37
2023-03-20T04:21:30.014Z,1.37
2023-03-20T04:24:01.026Z,3.75
2023-03-20T04:26:28.901Z,1.30
2023-03-20T04:29:04.186Z,1.10
2023-03-20T04:32:13.562Z,2.67
2023-03-20T04:35:04.846Z,2.17
2023-03-20T04:37:55.440Z,1.13
2023-03-20T04:40:34.022Z,4.07
2023-03-20T04:43:07.422Z,3.03
2023-03-20T04:45:39.421Z,2.43
2023-03-20T04:48:14.855Z,2.97
2023-03-20T04:50:50.828Z,1.60
2023-03-20T04:53:27.687Z,10.30
2023-03-20T04:58:43.126Z,14.03
2023-03-20T05:01:15.305Z,4.68
2023-03-20T05:03:45.438Z,3.03
2023-03-20T05:06:18.663Z,7.80
2023-03-20T05:08:52.820Z,2.37
2023-03-20T05:11:23.593Z,4.47
2023-03-20T05:14:11.876Z,1.90
2023-03-20T05:17:02.157Z,2.83
2023-03-20T05:19:55.632Z,6.57
2023-03-20T05:22:48.619Z,1.60
2023-03-20T05:25:47.613Z,2.57
2023-03-20T05:28:44.104Z,14.73
2023-03-20T05:31:47.379Z,2.50
2023-03-20T05:34:36.863Z,14.80
2023-03-20T05:37:29.940Z,1.37
2023-03-20T05:40:34.000Z,1.80
2023-03-20T05:43:22.873Z,2.87
2023-03-20T05:46:24.410Z,10.43
2023-03-20T05:49:29.021Z,1.60
2023-03-20T05:52:24.237Z,1.80
2023-03-20T05:55:20.296Z,1.40
2023-03-20T05:58:31.655Z,1.70
2023-03-20T06:01:19.611Z,13.00
2023-03-20T06:04:11.033Z,2.27
2023-03-20T06:07:10.630Z,4.10
2023-03-20T06:12:30.984Z,4.60
2023-03-20T06:15:01.902Z,7.63
2023-03-20T06:17:37.578Z,2.17
2023-03-20T06:20:12.501Z,8.20
2023-03-20T06:22:53.563Z,6.50
2023-03-20T06:25:25.514Z,1.90
2023-03-20T06:28:03.947Z,2.77
2023-03-20T06:30:36.018Z,2.60
2023-03-20T06:33:19.815Z,4.43
2023-03-20T06:36:10.912Z,13.27
2023-03-20T06:38:48.348Z,1.03
2023-03-20T06:41:33.674Z,9.93
2023-03-20T06:44:09.104Z,15.47
2023-03-20T06:47:21.844Z,4.60
2023-03-20T06:49:54.774Z,5.07
2023-03-20T06:52:23.663Z,3.50
2023-03-20T06:55:20.296Z,9.33
2023-03-20T06:57:50.156Z,6.57
2023-03-20T07:00:22.862Z,2.37
2023-03-20T07:02:52.166Z,3.15
2023-03-20T07:05:23.746Z,3.77
2023-03-20T07:07:55.339Z,7.78
2023-03-20T07:10:41.814Z,3.73
2023-03-20T07:13:19.717Z,11.03
2023-03-20T07:16:03.641Z,3.90
2023-03-20T07:18:58.978Z,3.33
2023-03-20T07:21:30.134Z,5.23
2023-03-20T07:24:03.006Z,4.63
2023-03-20T07:26:36.321Z,4.17
2023-03-20T07:29:15.265Z,3.13
2023-03-20T07:31:46.836Z,11.47
2023-03-20T07:34:33.870Z,2.60
2023-03-20T07:37:10.343Z,2.27
2023-03-20T07:39:45.159Z,3.50
2023-03-20T07:42:42.481Z,6.20
2023-03-20T07:45:32.821Z,6.07
2023-03-20T07:48:03.313Z,1.95
2023-03-20T07:50:36.608Z,4.03
2023-03-20T07:53:07.931Z,2.13
2023-03-20T07:55:45.596Z,3.37
2023-03-20T07:58:15.724Z,9.23
2023-03-20T08:00:52.719Z,3.80
2023-03-20T08:03:31.453Z,4.90
2023-03-20T08:06:07.989Z,8.30
2023-03-20T08:08:55.442Z,3.80
2023-03-20T08:11:34.256Z,9.53
2023-03-20T08:14:08.485Z,2.23
2023-03-20T08:16:37.768Z,3.67
2023-03-20T08:19:12.574Z,5.83
2023-03-20T08:21:46.392Z,4.77
2023-03-20T08:24:23.660Z,3.47
2023-03-20T08:26:58.074Z,2.87
2023-03-20T08:32:16.704Z,2.60
2023-03-20T08:34:46.625Z,5.77
2023-03-20T08:37:25.699Z,3.60
2023-03-20T08:40:06.794Z,5.73
2023-03-20T08:42:45.388Z,4.93
2023-03-20T08:45:31.350Z,3.23
2023-03-20T08:48:03.594Z,6.37
2023-03-20T08:50:34.614Z,2.73
2023-03-20T08:53:08.380Z,2.83
2023-03-20T08:55:36.850Z,4.80
2023-03-20T08:58:24.881Z,3.80
2023-03-20T09:00:59.178Z,5.00
2023-03-20T09:03:30.314Z,4.87
2023-03-20T09:06:02.299Z,2.13
2023-03-20T09:08:32.404Z,2.13
2023-03-20T09:11:18.615Z,2.70
2023-03-20T09:13:50.096Z,3.60
2023-03-20T09:16:20.001Z,2.03
2023-03-20T09:18:51.616Z,2.73
2023-03-20T09:21:29.208Z,1.20
2023-03-20T09:23:59.913Z,3.77
2023-03-20T09:26:37.759Z,2.22
2023-03-20T09:29:09.451Z,3.83
2023-03-20T09:34:09.684Z,6.33
2023-03-20T09:36:47.351Z,1.93
2023-03-20T09:39:15.581Z,4.40
2023-03-20T09:41:57.239Z,3.87
2023-03-20T09:44:57.573Z,2.10
2023-03-20T09:48:00.807Z,2.73
2023-03-20T09:50:43.709Z,6.03
2023-03-20T09:53:24.912Z,2.73
2023-03-20T09:55:56.634Z,5.03
2023-03-20T10:01:06.855Z,1.63
2023-03-20T10:04:03.116Z,2.70
2023-03-20T10:06:32.725Z,3.27
2023-03-20T10:09:12.027Z,2.53
2023-03-20T10:12:03.740Z,2.67
2023-03-20T10:14:34.651Z,1.58
2023-03-20T10:17:24.594Z,1.60
2023-03-20T10:20:01.868Z,5.00
2023-03-20T10:22:38.015Z,3.60
2023-03-20T10:25:42.157Z,1.50
2023-03-20T10:28:30.690Z,2.43
2023-03-20T10:31:32.115Z,2.07
2023-03-20T10:34:49.429Z,9.37
2023-03-20T10:38:02.818Z,3.27
2023-03-20T10:40:44.207Z,1.80
2023-03-20T10:43:24.595Z,3.33
2023-03-20T10:46:30.709Z,1.93
2023-03-20T10:49:30.400Z,2.80
2023-03-20T10:52:08.339Z,6.43
2023-03-20T10:54:50.826Z,3.13
2023-03-20T10:57:35.074Z,1.87
2023-03-20T11:00:13.617Z,1.93
2023-03-20T11:02:49.785Z,3.77
2023-03-20T11:05:39.316Z,4.67
2023-03-20T11:08:17.031Z,2.90
2023-03-20T11:11:00.915Z,5.27
2023-03-20T11:13:46.083Z,1.97
2023-03-20T11:16:26.197Z,2.87
2023-03-20T11:18:59.839Z,3.40
2023-03-20T11:21:34.778Z,11.20
2023-03-20T11:24:04.129Z,5.70
2023-03-20T11:26:49.427Z,4.93
2023-03-20T11:29:45.605Z,2.67
2023-03-20T11:32:51.194Z,3.73
2023-03-20T11:35:33.196Z,2.87
2023-03-20T11:38:20.845Z,3.40
2023-03-20T11:40:58.193Z,2.38
2023-03-20T11:43:37.324Z,6.10
2023-03-20T11:46:19.193Z,1.63
2023-03-20T11:48:48.391Z,5.55
2023-03-20T11:51:28.561Z,2.30
2023-03-20T11:54:22.510Z,2.97
2023-03-20T11:57:24.327Z,8.67
2023-03-20T12:00:00.138Z,10.83
2023-03-20T12:02:45.493Z,7.63
2023-03-20T12:05:53.020Z,2.33
2023-03-20T12:08:30.536Z,3.30
2023-03-20T12:11:25.978Z,2.50
2023-03-20T12:14:04.646Z,3.30
2023-03-20T12:16:40.009Z,3.63
2023-03-20T12:19:20.925Z,1.53
2023-03-20T12:22:07.954Z,4.20
2023-03-20T12:24:56.205Z,3.40
2023-03-20T12:27:39.291Z,2.20
2023-03-20T12:30:39.529Z,2.93
2023-03-20T12:33:36.391Z,3.43
2023-03-20T12:36:13.815Z,2.30
2023-03-20T12:38:55.237Z,2.00
2023-03-20T12:41:35.605Z,2.15
2023-03-20T12:44:27.957Z,3.90
2023-03-20T12:47:49.078Z,3.20
2023-03-20T12:50:47.305Z,1.80
2023-03-20T12:53:24.351Z,3.13
2023-03-20T12:56:32.537Z,10.27
2023-03-20T12:59:11.338Z,2.97
2023-03-20T13:01:59.991Z,2.20
2023-03-20T13:04:58.022Z,4.20
2023-03-20T13:08:10.952Z,4.67
2023-03-20T13:14:09.858Z,5.80
2023-03-20T13:16:48.543Z,2.53
2023-03-20T13:19:37.718Z,4.70
2023-03-20T13:22:26.697Z,9.63
2023-03-20T13:25:25.854Z,2.50
2023-03-20T13:28:21.601Z,11.77
2023-03-20T13:37:24.343Z,2.87
2023-03-20T13:40:43.800Z,4.40
2023-03-20T13:43:57.895Z,11.13
2023-03-20T13:46:53.116Z,5.70
2023-03-20T13:49:40.124Z,4.33
2023-03-20T13:52:27.691Z,4.53
2023-03-20T13:55:28.741Z,3.00
2023-03-20T13:58:53.285Z,4.90
2023-03-20T14:02:03.650Z,2.17
2023-03-20T14:04:36.971Z,4.73
2023-03-20T14:07:40.728Z,2.87
2023-03-20T14:10:26.659Z,4.63
2023-03-20T14:13:21.825Z,10.63
2023-03-20T14:16:02.051Z,9.80
2023-03-20T14:18:35.183Z,4.23
2023-03-20T14:21:15.632Z,2.43
2023-03-20T14:23:51.105Z,6.40
2023-03-20T14:26:30.637Z,18.93
2023-03-20T14:29:44.498Z,4.00
2023-03-20T14:32:21.702Z,4.53
2023-03-20T14:35:02.784Z,11.20
2023-03-20T14:37:55.800Z,4.95
2023-03-20T14:40:39.371Z,5.90
2023-03-20T14:44:05.948Z,7.70
2023-03-20T14:47:25.960Z,3.87
2023-03-20T14:50:04.743Z,6.43
2023-03-20T14:53:23.308Z,10.95
2023-03-20T14:56:11.827Z,7.90
2023-03-20T14:58:58.196Z,6.47
2023-03-20T15:02:03.498Z,10.03
2023-03-20T15:04:40.433Z,11.07
2023-03-20T15:07:21.422Z,4.93
2023-03-20T15:10:01.833Z,7.93
2023-03-20T15:12:37.636Z,6.43
2023-03-20T15:15:26.297Z,6.13
2023-03-20T15:17:56.244Z,4.80
2023-03-20T15:20:40.477Z,9.23
2023-03-20T15:23:13.880Z,7.40
2023-03-20T15:26:03.211Z,5.07
2023-03-20T15:28:38.344Z,5.13
2023-03-20T15:31:23.333Z,17.30
2023-03-20T15:33:54.858Z,7.00
2023-03-20T15:36:30.892Z,5.38
2023-03-20T15:39:27.186Z,5.30
2023-03-20T15:42:09.292Z,5.20
2023-03-20T15:44:39.812Z,3.93
2023-03-20T15:47:28.763Z,4.73
2023-03-20T15:50:10.828Z,6.97
2023-03-20T15:52:55.029Z,3.03
2023-03-20T15:55:33.078Z,4.63
2023-03-20T15:58:08.648Z,3.00
2023-03-20T16:00:49.430Z,5.53
2023-03-20T16:03:22.232Z,4.93
2023-03-20T16:06:02.281Z,3.17
2023-03-20T16:08:37.055Z,4.37
2023-03-20T16:11:36.005Z,5.27
2023-03-20T16:14:16.221Z,3.13
2023-03-20T16:16:45.635Z,4.83
2023-03-20T16:19:16.067Z,15.60
2023-03-20T16:22:34.917Z,8.63
2023-03-20T16:25:24.382Z,5.73
2023-03-20T16:27:55.813Z,17.17
2023-03-20T16:33:19.223Z,4.03
2023-03-20T16:35:50.925Z,6.20
2023-03-20T16:41:41.166Z,6.10
2023-03-20T16:44:40.433Z,5.87
2023-03-20T16:47:49.947Z,3.80
2023-03-20T16:50:30.663Z,18.90
2023-03-20T16:53:11.064Z,15.50
2023-03-20T16:55:51.588Z,16.23
2023-03-20T16:58:28.383Z,12.87
2023-03-20T17:01:13.945Z,7.40
2023-03-20T17:03:52.575Z,14.53
2023-03-20T17:12:19.166Z,17.47
2023-03-20T17:14:51.715Z,17.20
2023-03-20T17:17:30.192Z,9.63
2023-03-20T17:20:04.826Z,5.97
2023-03-20T17:22:41.449Z,7.70
2023-03-20T17:25:20.107Z,5.20
2023-03-20T17:27:50.850Z,8.90
2023-03-20T17:30:25.745Z,14.03
2023-03-20T17:32:56.862Z,23.70
2023-03-20T17:38:20.361Z,37.63
2023-03-20T17:40:57.561Z,21.43
2023-03-20T17:43:31.214Z,18.07
2023-03-20T17:46:04.877Z,93.43
2023-03-20T17:48:38.638Z,184.30
2023-03-20T17:51:08.120Z,168.57
2023-03-20T17:53:40.127Z,41.27
2023-03-20T17:56:22.961Z,22.50
2023-03-20T17:58:53.891Z,17.53
2023-03-20T18:01:33.207Z,9.17
2023-03-20T18:04:07.177Z,14.43
2023-03-20T18:06:38.248Z,8.73
2023-03-20T18:09:08.947Z,10.20
2023-03-20T18:14:26.299Z,7.63
2023-03-20T18:16:56.633Z,7.47
2023-03-20T18:19:30.884Z,4.40
2023-03-20T18:22:09.298Z,6.50
2023-03-20T18:24:42.762Z,9.77
2023-03-20T18:27:15.710Z,8.40
2023-03-20T18:29:47.575Z,5.47
2023-03-20T18:35:10.104Z,8.98
2023-03-20T18:38:04.714Z,6.43
2023-03-20T18:40:38.112Z,10.40
2023-03-20T18:43:12.232Z,6.93
2023-03-20T18:45:46.258Z,15.73
2023-03-20T18:48:18.447Z,7.97
2023-03-20T18:51:06.304Z,9.57
2023-03-20T18:53:40.077Z,7.03
2023-03-20T18:56:24.356Z,2.90
2023-03-20T18:59:02.323Z,14.40
2023-03-20T19:01:41.705Z,9.03
2023-03-20T19:04:11.270Z,8.27
2023-03-20T19:06:43.325Z,12.90
2023-03-20T19:09:13.754Z,9.20
2023-03-20T19:11:43.034Z,3.33
2023-03-20T19:14:21.013Z,17.53
2023-03-20T19:19:38.693Z,5.07
2023-03-20T19:24:57.356Z,3.97
2023-03-20T19:27:28.374Z,3.63
2023-03-20T19:30:02.748Z,9.13
2023-03-20T19:32:34.065Z,4.17
2023-03-20T19:37:57.117Z,6.38
2023-03-20T19:41:06.581Z,2.93
2023-03-20T19:43:52.158Z,13.83
2023-03-20T19:46:42.518Z,17.57
2023-03-20T19:49:36.000Z,16.83
2023-03-20T19:52:07.292Z,30.17
2023-03-20T19:54:53.006Z,16.60
2023-03-20T19:57:33.085Z,8.53
2023-03-20T20:00:55.013Z,13.17
2023-03-20T20:03:07.233Z,21.50
2023-03-20T20:05:45.291Z,5.23
2023-03-20T20:08:33.400Z,13.40
2023-03-20T20:11:12.957Z,12.17
2023-03-20T20:16:41.117Z,13.37
2023-03-20T20:19:24.944Z,12.63
2023-03-20T20:22:24.810Z,7.07
2023-03-20T20:24:50.280Z,8.13
2023-03-20T20:29:56.970Z,10.47
2023-03-20T20:32:27.929Z,11.73
2023-03-20T20:38:33.481Z,7.17
2023-03-20T20:40:48.327Z,7.47
2023-03-20T20:43:48.497Z,23.23
2023-03-20T20:46:11.573Z,10.53
2023-03-20T20:48:57.334Z,12.53
2023-03-20T20:51:31.127Z,6.47
2023-03-20T20:54:01.205Z,8.57
2023-03-20T20:56:31.869Z,10.40
2023-03-20T20:59:15.038Z,9.17
2023-03-20T21:01:58.585Z,12.83
2023-03-20T21:04:32.228Z,7.47
2023-03-20T21:07:11.570Z,6.20
2023-03-20T21:09:46.747Z,2.60
2023-03-20T21:12:34.752Z,6.30
2023-03-20T21:15:12.191Z,2.53
2023-03-20T21:17:59.478Z,9.30
2023-03-20T21:20:33.635Z,3.33
2023-03-20T21:23:08.262Z,10.40
2023-03-20T21:25:44.662Z,8.00
2023-03-20T21:28:18.480Z,10.90
2023-03-20T21:31:12.401Z,6.10
2023-03-20T21:33:46.197Z,7.03
2023-03-20T21:36:14.185Z,5.20
2023-03-20T21:39:14.438Z,9.57
2023-03-20T21:41:38.976Z,2.90
2023-03-20T21:44:46.082Z,3.90
2023-03-20T21:53:34.942Z,6.27
2023-03-20T22:05:09.812Z,5.00
2023-03-20T22:10:55.814Z,10.43
2023-03-20T22:13:47.311Z,6.07
2023-03-20T22:17:06.453Z,8.00
2023-03-20T22:22:13.781Z,5.93
2023-03-20T22:25:11.427Z,6.30
2023-03-20T22:31:17.229Z,4.60
2023-03-20T22:34:16.208Z,7.43
2023-03-20T22:37:09.337Z,3.20
2023-03-20T22:40:03.279Z,3.07
2023-03-20T22:45:09.635Z,7.13
2023-03-20T22:47:43.052Z,7.50
2023-03-20T22:50:26.179Z,4.43
2023-03-20T22:53:08.329Z,15.00
2023-03-20T22:55:39.288Z,6.63
2023-03-20T23:00:58.518Z,5.87
2023-03-20T23:03:41.019Z,5.57
2023-03-20T23:06:33.206Z,9.07
2023-03-20T23:09:14.508Z,5.93
2023-03-20T23:14:44.859Z,5.33
2023-03-20T23:17:16.775Z,5.97
2023-03-20T23:19:52.131Z,7.13
2023-03-20T23:22:26.132Z,10.03
2023-03-20T23:25:23.962Z,4.67
2023-03-20T23:28:09.176Z,8.00
2023-03-20T23:30:51.795Z,10.73
2023-03-20T23:33:33.879Z,10.10
2023-03-20T23:36:19.010Z,9.50
2023-03-20T23:38:56.800Z,5.88
2023-03-20T23:41:53.685Z,3.72
2023-03-20T23:44:19.108Z,8.97
2023-03-20T23:46:49.915Z,3.90
2023-03-20T23:49:26.235Z,9.30
2023-03-20T23:52:05.495Z,2.73
2023-03-20T23:54:43.696Z,8.27
2023-03-20T23:57:25.234Z,4.70
2023-03-20T23:59:58.986Z,4.78
